sensor_id;sensor_type;location;lat;lon;timestamp;P1;durP1;ratioP1;P2;durP2;ratioP2
71204;SDS011;58935;54.498;18.544;2023-09-12T00:00:54;30.20;;;22.70;;
71204;SDS011;58935;54.498;18.544;2023-09-12T00:03:22;26.60;;;22.30;;
71204;SDS011;58935;54.498;18.544;2023-09-12T00:05:57;27.20;;;22.20;;
71204;SDS011;58935;54.498;18.544;2023-09-12T00:08:23;30.00;;;22.10;;
71204;SDS011;58935;54.498;18.544;2023-09-12T00:13:39;24.10;;;21.50;;
71204;SDS011;58935;54.498;18.544;2023-09-12T00:16:06;26.30;;;22.20;;
71204;SDS011;58935;54.498;18.544;2023-09-12T00:18:32;23.30;;;20.90;;
71204;SDS011;58935;54.498;18.544;2023-09-12T00:21:00;25.00;;;21.40;;
71204;SDS011;58935;54.498;18.544;2023-09-12T00:23:26;30.00;;;23.10;;
71204;SDS011;58935;54.498;18.544;2023-09-12T00:25:52;28.80;;;22.30;;
71204;SDS011;58935;54.498;18.544;2023-09-12T00:28:19;30.10;;;22.80;;
71204;SDS011;58935;54.498;18.544;2023-09-12T00:30:45;27.00;;;22.10;;
71204;SDS011;58935;54.498;18.544;2023-09-12T00:33:11;26.70;;;22.20;;
71204;SDS011;58935;54.498;18.544;2023-09-12T00:35:36;25.70;;;22.20;;
71204;SDS011;58935;54.498;18.544;2023-09-12T00:38:02;26.60;;;22.90;;
71204;SDS011;58935;54.498;18.544;2023-09-12T00:40:28;26.50;;;22.20;;
71204;SDS011;58935;54.498;18.544;2023-09-12T00:42:54;24.30;;;21.70;;
71204;SDS011;58935;54.498;18.544;2023-09-12T00:45:19;25.40;;;21.50;;
71204;SDS011;58935;54.498;18.544;2023-09-12T00:47:45;27.50;;;22.10;;
71204;SDS011;58935;54.498;18.544;2023-09-12T00:50:13;29.40;;;22.40;;
71204;SDS011;58935;54.498;18.544;2023-09-12T00:52:42;31.40;;;23.10;;
71204;SDS011;58935;54.498;18.544;2023-09-12T00:55:09;26.30;;;22.00;;
71204;SDS011;58935;54.498;18.544;2023-09-12T00:57:35;26.60;;;21.70;;
71204;SDS011;58935;54.498;18.544;2023-09-12T01:00:03;25.40;;;21.40;;
71204;SDS011;58935;54.498;18.544;2023-09-12T01:02:33;30.00;;;21.20;;
71204;SDS011;58935;54.498;18.544;2023-09-12T01:04:59;30.40;;;21.70;;
71204;SDS011;58935;54.498;18.544;2023-09-12T01:07:24;26.70;;;20.40;;
71204;SDS011;58935;54.498;18.544;2023-09-12T01:09:49;24.90;;;20.70;;
71204;SDS011;58935;54.498;18.544;2023-09-12T01:12:15;24.20;;;20.90;;
71204;SDS011;58935;54.498;18.544;2023-09-12T01:14:40;27.50;;;20.30;;
71204;SDS011;58935;54.498;18.544;2023-09-12T01:17:06;27.40;;;20.50;;
71204;SDS011;58935;54.498;18.544;2023-09-12T01:19:31;27.00;;;20.00;;
71204;SDS011;58935;54.498;18.544;2023-09-12T01:24:58;25.90;;;19.80;;
71204;SDS011;58935;54.498;18.544;2023-09-12T01:27:34;21.80;;;19.40;;
71204;SDS011;58935;54.498;18.544;2023-09-12T01:30:05;20.80;;;18.10;;
71204;SDS011;58935;54.498;18.544;2023-09-12T01:32:33;23.60;;;18.70;;
71204;SDS011;58935;54.498;18.544;2023-09-12T01:35:00;20.20;;;17.80;;
71204;SDS011;58935;54.498;18.544;2023-09-12T01:37:30;21.20;;;18.00;;
71204;SDS011;58935;54.498;18.544;2023-09-12T01:39:56;26.50;;;18.40;;
71204;SDS011;58935;54.498;18.544;2023-09-12T01:42:22;25.90;;;18.10;;
71204;SDS011;58935;54.498;18.544;2023-09-12T01:44:50;22.60;;;17.60;;
71204;SDS011;58935;54.498;18.544;2023-09-12T01:47:21;21.80;;;17.60;;
71204;SDS011;58935;54.498;18.544;2023-09-12T01:49:49;20.80;;;17.80;;
71204;SDS011;58935;54.498;18.544;2023-09-12T01:52:19;17.70;;;15.70;;
71204;SDS011;58935;54.498;18.544;2023-09-12T01:54:46;18.60;;;16.00;;
71204;SDS011;58935;54.498;18.544;2023-09-12T01:57:13;17.90;;;15.90;;
71204;SDS011;58935;54.498;18.544;2023-09-12T01:59:39;16.80;;;15.00;;
71204;SDS011;58935;54.498;18.544;2023-09-12T02:02:05;19.80;;;15.00;;
71204;SDS011;58935;54.498;18.544;2023-09-12T02:04:32;21.80;;;14.90;;
71204;SDS011;58935;54.498;18.544;2023-09-12T02:06:57;17.00;;;15.20;;
71204;SDS011;58935;54.498;18.544;2023-09-12T02:09:23;19.00;;;14.40;;
71204;SDS011;58935;54.498;18.544;2023-09-12T02:11:50;20.50;;;15.00;;
71204;SDS011;58935;54.498;18.544;2023-09-12T02:14:16;17.40;;;14.60;;
71204;SDS011;58935;54.498;18.544;2023-09-12T02:16:43;18.30;;;14.40;;
71204;SDS011;58935;54.498;18.544;2023-09-12T02:19:08;18.20;;;14.40;;
71204;SDS011;58935;54.498;18.544;2023-09-12T02:21:33;20.10;;;14.40;;
71204;SDS011;58935;54.498;18.544;2023-09-12T02:23:59;16.10;;;14.40;;
71204;SDS011;58935;54.498;18.544;2023-09-12T02:26:24;15.70;;;13.90;;
71204;SDS011;58935;54.498;18.544;2023-09-12T02:28:49;15.30;;;13.60;;
71204;SDS011;58935;54.498;18.544;2023-09-12T02:31:15;15.10;;;13.00;;
71204;SDS011;58935;54.498;18.544;2023-09-12T02:33:40;17.00;;;14.30;;
71204;SDS011;58935;54.498;18.544;2023-09-12T02:36:06;14.20;;;12.80;;
71204;SDS011;58935;54.498;18.544;2023-09-12T02:38:32;20.70;;;14.20;;
71204;SDS011;58935;54.498;18.544;2023-09-12T02:40:58;20.00;;;13.70;;
71204;SDS011;58935;54.498;18.544;2023-09-12T02:43:23;14.80;;;13.10;;
71204;SDS011;58935;54.498;18.544;2023-09-12T02:45:49;16.00;;;13.20;;
71204;SDS011;58935;54.498;18.544;2023-09-12T02:48:14;14.90;;;13.20;;
71204;SDS011;58935;54.498;18.544;2023-09-12T02:50:40;18.30;;;12.50;;
71204;SDS011;58935;54.498;18.544;2023-09-12T02:53:05;14.90;;;13.30;;
71204;SDS011;58935;54.498;18.544;2023-09-12T02:55:31;14.60;;;12.90;;
71204;SDS011;58935;54.498;18.544;2023-09-12T02:57:57;18.40;;;13.10;;
71204;SDS011;58935;54.498;18.544;2023-09-12T03:00:23;15.20;;;13.30;;
71204;SDS011;58935;54.498;18.544;2023-09-12T03:02:49;16.40;;;13.40;;
71204;SDS011;58935;54.498;18.544;2023-09-12T03:05:14;16.00;;;13.40;;
71204;SDS011;58935;54.498;18.544;2023-09-12T03:07:40;14.50;;;12.80;;
71204;SDS011;58935;54.498;18.544;2023-09-12T03:10:06;16.90;;;12.60;;
71204;SDS011;58935;54.498;18.544;2023-09-12T03:12:31;14.70;;;13.00;;
71204;SDS011;58935;54.498;18.544;2023-09-12T03:14:57;13.60;;;12.30;;
71204;SDS011;58935;54.498;18.544;2023-09-12T03:17:22;14.90;;;12.30;;
71204;SDS011;58935;54.498;18.544;2023-09-12T03:19:48;13.70;;;11.90;;
71204;SDS011;58935;54.498;18.544;2023-09-12T03:22:13;16.10;;;12.70;;
71204;SDS011;58935;54.498;18.544;2023-09-12T03:24:38;14.10;;;12.40;;
71204;SDS011;58935;54.498;18.544;2023-09-12T03:27:04;17.10;;;12.60;;
71204;SDS011;58935;54.498;18.544;2023-09-12T03:29:29;14.90;;;12.60;;
71204;SDS011;58935;54.498;18.544;2023-09-12T03:31:55;15.00;;;12.60;;
71204;SDS011;58935;54.498;18.544;2023-09-12T03:34:20;13.60;;;12.20;;
71204;SDS011;58935;54.498;18.544;2023-09-12T03:36:45;14.30;;;12.80;;
71204;SDS011;58935;54.498;18.544;2023-09-12T03:39:10;18.00;;;13.20;;
71204;SDS011;58935;54.498;18.544;2023-09-12T03:41:38;13.30;;;11.70;;
71204;SDS011;58935;54.498;18.544;2023-09-12T03:44:06;15.80;;;12.70;;
71204;SDS011;58935;54.498;18.544;2023-09-12T03:46:32;14.20;;;12.10;;
71204;SDS011;58935;54.498;18.544;2023-09-12T03:48:57;13.50;;;11.80;;
71204;SDS011;58935;54.498;18.544;2023-09-12T03:51:22;13.20;;;11.90;;
71204;SDS011;58935;54.498;18.544;2023-09-12T03:53:47;14.00;;;11.80;;
71204;SDS011;58935;54.498;18.544;2023-09-12T03:56:15;17.40;;;12.20;;
71204;SDS011;58935;54.498;18.544;2023-09-12T03:58:41;13.30;;;11.90;;
71204;SDS011;58935;54.498;18.544;2023-09-12T04:01:07;14.40;;;12.30;;
71204;SDS011;58935;54.498;18.544;2023-09-12T04:03:32;13.80;;;11.90;;
71204;SDS011;58935;54.498;18.544;2023-09-12T04:05:58;14.80;;;12.30;;
71204;SDS011;58935;54.498;18.544;2023-09-12T04:08:23;14.40;;;12.90;;
71204;SDS011;58935;54.498;18.544;2023-09-12T04:10:48;12.60;;;11.50;;
71204;SDS011;58935;54.498;18.544;2023-09-12T04:13:14;13.30;;;12.00;;
71204;SDS011;58935;54.498;18.544;2023-09-12T04:15:39;16.80;;;11.90;;
71204;SDS011;58935;54.498;18.544;2023-09-12T04:18:05;12.90;;;11.50;;
71204;SDS011;58935;54.498;18.544;2023-09-12T04:20:30;18.00;;;11.80;;
71204;SDS011;58935;54.498;18.544;2023-09-12T04:22:55;13.80;;;12.20;;
71204;SDS011;58935;54.498;18.544;2023-09-12T04:25:21;13.90;;;12.30;;
71204;SDS011;58935;54.498;18.544;2023-09-12T04:27:46;13.40;;;12.30;;
71204;SDS011;58935;54.498;18.544;2023-09-12T04:30:12;15.40;;;11.50;;
71204;SDS011;58935;54.498;18.544;2023-09-12T04:32:38;12.90;;;11.70;;
71204;SDS011;58935;54.498;18.544;2023-09-12T04:35:04;17.00;;;12.10;;
71204;SDS011;58935;54.498;18.544;2023-09-12T04:37:29;15.90;;;11.70;;
71204;SDS011;58935;54.498;18.544;2023-09-12T04:39:55;13.50;;;11.60;;
71204;SDS011;58935;54.498;18.544;2023-09-12T04:42:21;13.40;;;11.70;;
71204;SDS011;58935;54.498;18.544;2023-09-12T04:44:46;14.50;;;11.90;;
71204;SDS011;58935;54.498;18.544;2023-09-12T04:47:12;17.40;;;12.00;;
71204;SDS011;58935;54.498;18.544;2023-09-12T04:49:39;14.40;;;12.20;;
71204;SDS011;58935;54.498;18.544;2023-09-12T04:52:05;13.00;;;11.70;;
71204;SDS011;58935;54.498;18.544;2023-09-12T04:54:31;13.00;;;11.70;;
71204;SDS011;58935;54.498;18.544;2023-09-12T04:56:56;14.10;;;11.70;;
71204;SDS011;58935;54.498;18.544;2023-09-12T04:59:22;16.20;;;11.80;;
71204;SDS011;58935;54.498;18.544;2023-09-12T05:01:47;16.40;;;11.00;;
71204;SDS011;58935;54.498;18.544;2023-09-12T05:04:13;14.20;;;11.30;;
71204;SDS011;58935;54.498;18.544;2023-09-12T05:06:38;18.40;;;11.70;;
71204;SDS011;58935;54.498;18.544;2023-09-12T05:09:05;13.00;;;11.30;;
71204;SDS011;58935;54.498;18.544;2023-09-12T05:11:31;19.50;;;11.90;;
71204;SDS011;58935;54.498;18.544;2023-09-12T05:13:56;13.20;;;11.50;;
71204;SDS011;58935;54.498;18.544;2023-09-12T05:16:22;13.00;;;11.10;;
71204;SDS011;58935;54.498;18.544;2023-09-12T05:18:47;12.90;;;11.30;;
71204;SDS011;58935;54.498;18.544;2023-09-12T05:21:14;12.60;;;11.20;;
71204;SDS011;58935;54.498;18.544;2023-09-12T05:23:40;13.40;;;11.30;;
71204;SDS011;58935;54.498;18.544;2023-09-12T05:26:05;13.00;;;11.40;;
71204;SDS011;58935;54.498;18.544;2023-09-12T05:28:31;14.80;;;11.00;;
71204;SDS011;58935;54.498;18.544;2023-09-12T05:30:57;17.60;;;11.60;;
71204;SDS011;58935;54.498;18.544;2023-09-12T05:33:22;16.80;;;11.10;;
71204;SDS011;58935;54.498;18.544;2023-09-12T05:35:47;22.20;;;15.60;;
71204;SDS011;58935;54.498;18.544;2023-09-12T05:38:12;22.80;;;14.50;;
71204;SDS011;58935;54.498;18.544;2023-09-12T05:40:38;15.50;;;11.70;;
71204;SDS011;58935;54.498;18.544;2023-09-12T05:43:04;17.30;;;10.80;;
71204;SDS011;58935;54.498;18.544;2023-09-12T05:45:29;11.30;;;10.10;;
71204;SDS011;58935;54.498;18.544;2023-09-12T05:47:56;19.50;;;10.90;;
71204;SDS011;58935;54.498;18.544;2023-09-12T05:50:21;13.20;;;10.70;;
71204;SDS011;58935;54.498;18.544;2023-09-12T05:52:48;13.00;;;10.60;;
71204;SDS011;58935;54.498;18.544;2023-09-12T05:55:13;12.10;;;10.90;;
71204;SDS011;58935;54.498;18.544;2023-09-12T05:57:39;18.10;;;10.30;;
71204;SDS011;58935;54.498;18.544;2023-09-12T06:00:04;15.30;;;11.00;;
71204;SDS011;58935;54.498;18.544;2023-09-12T06:02:30;14.40;;;11.20;;
71204;SDS011;58935;54.498;18.544;2023-09-12T06:04:58;27.70;;;10.70;;
71204;SDS011;58935;54.498;18.544;2023-09-12T06:07:23;13.50;;;10.10;;
71204;SDS011;58935;54.498;18.544;2023-09-12T06:09:49;15.20;;;10.00;;
71204;SDS011;58935;54.498;18.544;2023-09-12T06:12:14;15.70;;;10.60;;
71204;SDS011;58935;54.498;18.544;2023-09-12T06:14:39;15.90;;;10.50;;
71204;SDS011;58935;54.498;18.544;2023-09-12T06:17:05;17.60;;;9.90;;
71204;SDS011;58935;54.498;18.544;2023-09-12T06:19:30;17.60;;;10.40;;
71204;SDS011;58935;54.498;18.544;2023-09-12T06:21:55;12.80;;;9.80;;
71204;SDS011;58935;54.498;18.544;2023-09-12T06:24:21;25.80;;;10.40;;
71204;SDS011;58935;54.498;18.544;2023-09-12T06:26:47;17.20;;;9.80;;
71204;SDS011;58935;54.498;18.544;2023-09-12T06:29:13;17.00;;;9.80;;
71204;SDS011;58935;54.498;18.544;2023-09-12T06:31:39;13.20;;;9.90;;
71204;SDS011;58935;54.498;18.544;2023-09-12T06:34:07;12.90;;;9.30;;
71204;SDS011;58935;54.498;18.544;2023-09-12T06:36:33;15.20;;;10.10;;
71204;SDS011;58935;54.498;18.544;2023-09-12T06:38:59;15.10;;;9.80;;
71204;SDS011;58935;54.498;18.544;2023-09-12T06:41:26;16.40;;;10.20;;
71204;SDS011;58935;54.498;18.544;2023-09-12T06:43:56;13.50;;;9.30;;
71204;SDS011;58935;54.498;18.544;2023-09-12T06:46:23;18.30;;;9.30;;
71204;SDS011;58935;54.498;18.544;2023-09-12T06:48:50;20.30;;;9.70;;
71204;SDS011;58935;54.498;18.544;2023-09-12T06:51:16;17.60;;;9.40;;
71204;SDS011;58935;54.498;18.544;2023-09-12T06:53:41;9.40;;;7.90;;
71204;SDS011;58935;54.498;18.544;2023-09-12T06:56:07;12.30;;;8.40;;
71204;SDS011;58935;54.498;18.544;2023-09-12T06:58:33;13.60;;;8.50;;
71204;SDS011;58935;54.498;18.544;2023-09-12T07:01:05;12.90;;;8.30;;
71204;SDS011;58935;54.498;18.544;2023-09-12T07:03:33;10.90;;;8.50;;
71204;SDS011;58935;54.498;18.544;2023-09-12T07:05:59;13.60;;;8.10;;
71204;SDS011;58935;54.498;18.544;2023-09-12T07:08:25;15.30;;;8.50;;
71204;SDS011;58935;54.498;18.544;2023-09-12T07:10:50;28.30;;;9.00;;
71204;SDS011;58935;54.498;18.544;2023-09-12T07:13:16;16.30;;;8.10;;
71204;SDS011;58935;54.498;18.544;2023-09-12T07:15:41;11.70;;;8.20;;
71204;SDS011;58935;54.498;18.544;2023-09-12T07:18:07;16.50;;;8.30;;
71204;SDS011;58935;54.498;18.544;2023-09-12T07:20:34;17.00;;;9.20;;
71204;SDS011;58935;54.498;18.544;2023-09-12T07:22:59;15.40;;;8.00;;
71204;SDS011;58935;54.498;18.544;2023-09-12T07:25:25;19.90;;;7.90;;
71204;SDS011;58935;54.498;18.544;2023-09-12T07:27:51;15.80;;;7.90;;
71204;SDS011;58935;54.498;18.544;2023-09-12T07:30:17;15.60;;;7.90;;
71204;SDS011;58935;54.498;18.544;2023-09-12T07:32:43;21.80;;;8.60;;
71204;SDS011;58935;54.498;18.544;2023-09-12T07:35:08;13.80;;;7.50;;
71204;SDS011;58935;54.498;18.544;2023-09-12T07:37:34;16.80;;;8.50;;
71204;SDS011;58935;54.498;18.544;2023-09-12T07:40:00;10.80;;;7.90;;
71204;SDS011;58935;54.498;18.544;2023-09-12T07:42:25;17.30;;;8.30;;
71204;SDS011;58935;54.498;18.544;2023-09-12T07:44:51;14.00;;;7.80;;
71204;SDS011;58935;54.498;18.544;2023-09-12T07:47:17;18.00;;;8.20;;
71204;SDS011;58935;54.498;18.544;2023-09-12T07:49:43;20.00;;;7.90;;
71204;SDS011;58935;54.498;18.544;2023-09-12T07:52:08;19.30;;;7.90;;
71204;SDS011;58935;54.498;18.544;2023-09-12T07:54:34;9.00;;;7.20;;
71204;SDS011;58935;54.498;18.544;2023-09-12T07:56:59;13.20;;;7.70;;
71204;SDS011;58935;54.498;18.544;2023-09-12T07:59:25;12.80;;;7.00;;
71204;SDS011;58935;54.498;18.544;2023-09-12T08:01:51;10.20;;;7.50;;
71204;SDS011;58935;54.498;18.544;2023-09-12T08:04:16;11.30;;;7.50;;
71204;SDS011;58935;54.498;18.544;2023-09-12T08:06:42;10.50;;;7.30;;
71204;SDS011;58935;54.498;18.544;2023-09-12T08:09:08;17.00;;;7.70;;
71204;SDS011;58935;54.498;18.544;2023-09-12T08:11:35;12.40;;;7.40;;
71204;SDS011;58935;54.498;18.544;2023-09-12T08:14:00;10.00;;;7.10;;
71204;SDS011;58935;54.498;18.544;2023-09-12T08:16:26;14.00;;;7.60;;
71204;SDS011;58935;54.498;18.544;2023-09-12T08:18:51;13.50;;;7.30;;
71204;SDS011;58935;54.498;18.544;2023-09-12T08:21:17;10.50;;;7.30;;
71204;SDS011;58935;54.498;18.544;2023-09-12T08:23:42;12.00;;;7.20;;
71204;SDS011;58935;54.498;18.544;2023-09-12T08:26:07;13.90;;;7.30;;
71204;SDS011;58935;54.498;18.544;2023-09-12T08:28:34;11.80;;;7.60;;
71204;SDS011;58935;54.498;18.544;2023-09-12T08:31:00;17.70;;;6.70;;
71204;SDS011;58935;54.498;18.544;2023-09-12T08:33:25;12.40;;;7.30;;
71204;SDS011;58935;54.498;18.544;2023-09-12T08:35:50;12.50;;;7.00;;
71204;SDS011;58935;54.498;18.544;2023-09-12T08:38:16;17.10;;;7.40;;
71204;SDS011;58935;54.498;18.544;2023-09-12T08:40:48;8.80;;;6.90;;
71204;SDS011;58935;54.498;18.544;2023-09-12T08:43:15;10.80;;;7.00;;
71204;SDS011;58935;54.498;18.544;2023-09-12T08:45:41;13.10;;;7.40;;
71204;SDS011;58935;54.498;18.544;2023-09-12T08:48:10;13.40;;;7.20;;
71204;SDS011;58935;54.498;18.544;2023-09-12T08:50:36;10.00;;;6.80;;
71204;SDS011;58935;54.498;18.544;2023-09-12T08:53:02;12.80;;;6.40;;
71204;SDS011;58935;54.498;18.544;2023-09-12T08:55:28;11.70;;;6.20;;
71204;SDS011;58935;54.498;18.544;2023-09-12T08:57:55;11.40;;;6.60;;
71204;SDS011;58935;54.498;18.544;2023-09-12T09:00:22;8.80;;;7.30;;
71204;SDS011;58935;54.498;18.544;2023-09-12T09:02:50;19.70;;;6.30;;
71204;SDS011;58935;54.498;18.544;2023-09-12T09:05:16;14.60;;;7.10;;
71204;SDS011;58935;54.498;18.544;2023-09-12T09:07:45;23.70;;;7.10;;
71204;SDS011;58935;54.498;18.544;2023-09-12T09:10:15;19.90;;;7.00;;
71204;SDS011;58935;54.498;18.544;2023-09-12T09:12:43;11.50;;;7.80;;
71204;SDS011;58935;54.498;18.544;2023-09-12T09:17:45;14.20;;;8.40;;
71204;SDS011;58935;54.498;18.544;2023-09-12T09:20:21;15.20;;;7.10;;
71204;SDS011;58935;54.498;18.544;2023-09-12T09:25:23;13.40;;;8.00;;
71204;SDS011;58935;54.498;18.544;2023-09-12T09:27:48;22.80;;;9.10;;
71204;SDS011;58935;54.498;18.544;2023-09-12T09:30:14;24.90;;;8.40;;
71204;SDS011;58935;54.498;18.544;2023-09-12T09:32:39;24.00;;;8.20;;
71204;SDS011;58935;54.498;18.544;2023-09-12T09:35:05;14.50;;;7.70;;
71204;SDS011;58935;54.498;18.544;2023-09-12T09:37:41;25.30;;;9.00;;
71204;SDS011;58935;54.498;18.544;2023-09-12T09:40:07;20.30;;;7.80;;
71204;SDS011;58935;54.498;18.544;2023-09-12T09:42:35;22.20;;;9.10;;
71204;SDS011;58935;54.498;18.544;2023-09-12T09:45:00;28.60;;;8.90;;
71204;SDS011;58935;54.498;18.544;2023-09-12T09:47:25;21.70;;;8.50;;
71204;SDS011;58935;54.498;18.544;2023-09-12T09:49:51;11.30;;;7.70;;
71204;SDS011;58935;54.498;18.544;2023-09-12T09:52:25;20.10;;;9.20;;
71204;SDS011;58935;54.498;18.544;2023-09-12T09:54:53;21.00;;;8.50;;
71204;SDS011;58935;54.498;18.544;2023-09-12T09:57:18;21.40;;;9.00;;
71204;SDS011;58935;54.498;18.544;2023-09-12T09:59:48;22.10;;;9.00;;
71204;SDS011;58935;54.498;18.544;2023-09-12T10:02:18;22.70;;;8.40;;
71204;SDS011;58935;54.498;18.544;2023-09-12T10:04:48;20.80;;;8.20;;
71204;SDS011;58935;54.498;18.544;2023-09-12T10:07:15;20.10;;;8.60;;
71204;SDS011;58935;54.498;18.544;2023-09-12T10:09:43;28.20;;;8.40;;
71204;SDS011;58935;54.498;18.544;2023-09-12T10:12:09;12.20;;;6.10;;
71204;SDS011;58935;54.498;18.544;2023-09-12T10:14:35;15.20;;;6.90;;
71204;SDS011;58935;54.498;18.544;2023-09-12T10:17:05;14.90;;;7.70;;
71204;SDS011;58935;54.498;18.544;2023-09-12T10:19:37;23.80;;;9.00;;
71204;SDS011;58935;54.498;18.544;2023-09-12T10:22:12;22.50;;;8.40;;
71204;SDS011;58935;54.498;18.544;2023-09-12T10:24:45;17.90;;;8.80;;
71204;SDS011;58935;54.498;18.544;2023-09-12T10:27:14;24.00;;;8.40;;
71204;SDS011;58935;54.498;18.544;2023-09-12T10:29:40;14.80;;;7.30;;
71204;SDS011;58935;54.498;18.544;2023-09-12T10:32:05;14.60;;;6.50;;
71204;SDS011;58935;54.498;18.544;2023-09-12T10:34:32;14.30;;;7.00;;
71204;SDS011;58935;54.498;18.544;2023-09-12T10:36:59;10.30;;;6.20;;
71204;SDS011;58935;54.498;18.544;2023-09-12T10:39:29;11.00;;;6.60;;
71204;SDS011;58935;54.498;18.544;2023-09-12T10:41:58;14.80;;;7.90;;
71204;SDS011;58935;54.498;18.544;2023-09-12T10:44:25;9.50;;;5.60;;
71204;SDS011;58935;54.498;18.544;2023-09-12T10:46:52;8.90;;;6.10;;
71204;SDS011;58935;54.498;18.544;2023-09-12T10:49:19;11.00;;;7.30;;
71204;SDS011;58935;54.498;18.544;2023-09-12T10:51:46;10.30;;;7.00;;
71204;SDS011;58935;54.498;18.544;2023-09-12T10:54:14;17.00;;;7.40;;
71204;SDS011;58935;54.498;18.544;2023-09-12T10:56:41;14.80;;;6.80;;
71204;SDS011;58935;54.498;18.544;2023-09-12T10:59:08;15.90;;;7.00;;
71204;SDS011;58935;54.498;18.544;2023-09-12T11:01:36;13.20;;;7.10;;
71204;SDS011;58935;54.498;18.544;2023-09-12T11:04:31;13.10;;;6.50;;
71204;SDS011;58935;54.498;18.544;2023-09-12T11:06:58;12.60;;;6.80;;
71204;SDS011;58935;54.498;18.544;2023-09-12T11:09:28;10.90;;;6.20;;
71204;SDS011;58935;54.498;18.544;2023-09-12T11:12:03;15.00;;;6.30;;
71204;SDS011;58935;54.498;18.544;2023-09-12T11:14:30;21.80;;;7.40;;
71204;SDS011;58935;54.498;18.544;2023-09-12T11:19:44;17.00;;;6.80;;
71204;SDS011;58935;54.498;18.544;2023-09-12T11:24:47;11.10;;;7.40;;
71204;SDS011;58935;54.498;18.544;2023-09-12T11:27:12;17.70;;;6.80;;
71204;SDS011;58935;54.498;18.544;2023-09-12T11:29:39;16.60;;;7.30;;
71204;SDS011;58935;54.498;18.544;2023-09-12T11:32:06;24.50;;;7.60;;
71204;SDS011;58935;54.498;18.544;2023-09-12T11:34:36;16.20;;;7.40;;
71204;SDS011;58935;54.498;18.544;2023-09-12T11:39:32;18.80;;;7.70;;
71204;SDS011;58935;54.498;18.544;2023-09-12T11:42:00;19.50;;;7.70;;
71204;SDS011;58935;54.498;18.544;2023-09-12T11:44:28;13.40;;;7.20;;
71204;SDS011;58935;54.498;18.544;2023-09-12T11:46:57;12.90;;;7.80;;
71204;SDS011;58935;54.498;18.544;2023-09-12T11:49:35;13.10;;;7.40;;
71204;SDS011;58935;54.498;18.544;2023-09-12T11:52:02;9.00;;;7.70;;
71204;SDS011;58935;54.498;18.544;2023-09-12T11:54:29;11.90;;;7.10;;
71204;SDS011;58935;54.498;18.544;2023-09-12T11:56:57;12.30;;;7.60;;
71204;SDS011;58935;54.498;18.544;2023-09-12T11:59:26;13.60;;;7.60;;
71204;SDS011;58935;54.498;18.544;2023-09-12T12:01:52;13.00;;;7.00;;
71204;SDS011;58935;54.498;18.544;2023-09-12T12:04:21;14.00;;;7.60;;
71204;SDS011;58935;54.498;18.544;2023-09-12T12:06:50;13.10;;;6.90;;
71204;SDS011;58935;54.498;18.544;2023-09-12T12:09:17;9.40;;;7.20;;
71204;SDS011;58935;54.498;18.544;2023-09-12T12:11:45;10.00;;;6.80;;
71204;SDS011;58935;54.498;18.544;2023-09-12T12:14:14;11.40;;;7.30;;
71204;SDS011;58935;54.498;18.544;2023-09-12T12:16:42;11.80;;;7.20;;
71204;SDS011;58935;54.498;18.544;2023-09-12T12:19:10;9.40;;;7.10;;
71204;SDS011;58935;54.498;18.544;2023-09-12T12:21:38;8.90;;;7.20;;
71204;SDS011;58935;54.498;18.544;2023-09-12T12:24:05;8.50;;;7.40;;
71204;SDS011;58935;54.498;18.544;2023-09-12T12:26:33;10.00;;;7.60;;
71204;SDS011;58935;54.498;18.544;2023-09-12T12:29:00;10.30;;;7.50;;
71204;SDS011;58935;54.498;18.544;2023-09-12T12:31:26;12.60;;;7.70;;
71204;SDS011;58935;54.498;18.544;2023-09-12T12:33:53;8.90;;;7.30;;
71204;SDS011;58935;54.498;18.544;2023-09-12T12:36:19;8.30;;;7.20;;
71204;SDS011;58935;54.498;18.544;2023-09-12T12:38:47;11.70;;;7.30;;
71204;SDS011;58935;54.498;18.544;2023-09-12T12:41:15;19.30;;;7.70;;
71204;SDS011;58935;54.498;18.544;2023-09-12T12:43:49;10.10;;;6.90;;
71204;SDS011;58935;54.498;18.544;2023-09-12T12:46:17;7.90;;;6.60;;
71204;SDS011;58935;54.498;18.544;2023-09-12T12:48:45;15.50;;;7.70;;
71204;SDS011;58935;54.498;18.544;2023-09-12T12:51:16;13.60;;;7.00;;
71204;SDS011;58935;54.498;18.544;2023-09-12T12:53:52;11.00;;;6.90;;
71204;SDS011;58935;54.498;18.544;2023-09-12T12:56:23;8.90;;;7.10;;
71204;SDS011;58935;54.498;18.544;2023-09-12T12:58:54;12.90;;;6.90;;
71204;SDS011;58935;54.498;18.544;2023-09-12T13:01:22;7.20;;;6.60;;
71204;SDS011;58935;54.498;18.544;2023-09-12T13:03:47;15.30;;;7.90;;
71204;SDS011;58935;54.498;18.544;2023-09-12T13:06:15;11.30;;;6.90;;
71204;SDS011;58935;54.498;18.544;2023-09-12T13:08:43;20.40;;;6.90;;
71204;SDS011;58935;54.498;18.544;2023-09-12T13:11:11;9.90;;;7.40;;
71204;SDS011;58935;54.498;18.544;2023-09-12T13:13:39;12.90;;;7.30;;
71204;SDS011;58935;54.498;18.544;2023-09-12T13:16:06;9.10;;;7.00;;
71204;SDS011;58935;54.498;18.544;2023-09-12T13:18:35;9.70;;;7.10;;
71204;SDS011;58935;54.498;18.544;2023-09-12T13:21:02;13.00;;;7.10;;
71204;SDS011;58935;54.498;18.544;2023-09-12T13:23:28;13.10;;;7.30;;
71204;SDS011;58935;54.498;18.544;2023-09-12T13:25:55;16.50;;;6.80;;
71204;SDS011;58935;54.498;18.544;2023-09-12T13:28:22;12.10;;;7.30;;
71204;SDS011;58935;54.498;18.544;2023-09-12T13:30:51;16.90;;;6.20;;
71204;SDS011;58935;54.498;18.544;2023-09-12T13:33:17;10.90;;;6.40;;
71204;SDS011;58935;54.498;18.544;2023-09-12T13:35:42;8.30;;;5.70;;
71204;SDS011;58935;54.498;18.544;2023-09-12T13:38:08;9.20;;;6.30;;
71204;SDS011;58935;54.498;18.544;2023-09-12T13:40:37;6.90;;;6.30;;
71204;SDS011;58935;54.498;18.544;2023-09-12T13:43:05;9.00;;;6.80;;
71204;SDS011;58935;54.498;18.544;2023-09-12T13:45:32;11.00;;;6.40;;
71204;SDS011;58935;54.498;18.544;2023-09-12T13:47:59;10.70;;;7.00;;
71204;SDS011;58935;54.498;18.544;2023-09-12T13:50:25;12.20;;;6.30;;
71204;SDS011;58935;54.498;18.544;2023-09-12T13:52:54;13.70;;;7.10;;
71204;SDS011;58935;54.498;18.544;2023-09-12T13:55:21;14.90;;;6.80;;
71204;SDS011;58935;54.498;18.544;2023-09-12T13:57:47;9.50;;;6.20;;
71204;SDS011;58935;54.498;18.544;2023-09-12T14:00:12;8.90;;;6.30;;
71204;SDS011;58935;54.498;18.544;2023-09-12T14:02:38;15.80;;;6.60;;
71204;SDS011;58935;54.498;18.544;2023-09-12T14:05:03;8.60;;;6.70;;
71204;SDS011;58935;54.498;18.544;2023-09-12T14:07:29;7.50;;;6.30;;
71204;SDS011;58935;54.498;18.544;2023-09-12T14:09:55;8.10;;;6.40;;
71204;SDS011;58935;54.498;18.544;2023-09-12T14:12:23;6.70;;;6.10;;
71204;SDS011;58935;54.498;18.544;2023-09-12T14:14:49;11.90;;;6.50;;
71204;SDS011;58935;54.498;18.544;2023-09-12T14:17:15;14.40;;;6.30;;
71204;SDS011;58935;54.498;18.544;2023-09-12T14:19:40;8.40;;;6.10;;
71204;SDS011;58935;54.498;18.544;2023-09-12T14:22:06;10.60;;;6.00;;
71204;SDS011;58935;54.498;18.544;2023-09-12T14:24:31;7.90;;;6.50;;
71204;SDS011;58935;54.498;18.544;2023-09-12T14:26:56;8.20;;;6.40;;
71204;SDS011;58935;54.498;18.544;2023-09-12T14:29:22;7.40;;;5.80;;
71204;SDS011;58935;54.498;18.544;2023-09-12T14:31:48;8.70;;;6.20;;